createdAt,value
2022-08-30T00:00:48.988Z,998.61
2022-08-30T00:01:48.976Z,998.64
2022-08-30T00:02:49.136Z,998.65
2022-08-30T00:03:49.037Z,998.65
2022-08-30T00:04:48.937Z,998.62
2022-08-30T00:05:48.925Z,998.63
2022-08-30T00:06:48.910Z,998.58
2022-08-30T00:07:48.897Z,998.67
2022-08-30T00:08:48.883Z,998.65
2022-08-30T00:09:48.875Z,998.68
2022-08-30T00:10:48.857Z,998.65
2022-08-30T00:11:48.846Z,998.69
2022-08-30T00:12:48.831Z,998.69
2022-08-30T00:13:48.822Z,998.66
2022-08-30T00:14:48.806Z,998.69
2022-08-30T00:15:48.865Z,998.67
2022-08-30T00:16:48.779Z,998.73
2022-08-30T00:17:48.767Z,998.64
2022-08-30T00:18:48.754Z,998.68
2022-08-30T00:19:48.745Z,998.64
2022-08-30T00:20:48.726Z,998.70
2022-08-30T00:21:48.714Z,998.71
2022-08-30T00:23:48.688Z,998.71
2022-08-30T00:24:48.673Z,998.76
2022-08-30T00:25:48.661Z,998.73
2022-08-30T00:26:48.647Z,998.77
2022-08-30T00:27:48.634Z,998.79
2022-08-30T00:28:48.620Z,998.73
2022-08-30T00:29:48.608Z,998.74
2022-08-30T00:30:48.673Z,998.74
2022-08-30T00:31:48.585Z,998.76
2022-08-30T00:32:48.568Z,998.74
2022-08-30T00:33:48.559Z,998.76
2022-08-30T00:34:48.541Z,998.76
2022-08-30T00:35:48.529Z,998.76
2022-08-30T00:36:48.516Z,998.68
2022-08-30T00:37:48.505Z,998.69
2022-08-30T00:38:48.489Z,998.71
2022-08-30T00:39:48.476Z,998.69
2022-08-30T00:40:48.532Z,998.65
2022-08-30T00:41:48.450Z,998.68
2022-08-30T00:42:50.749Z,998.69
2022-08-30T00:43:48.422Z,998.75
2022-08-30T00:44:48.409Z,998.70
2022-08-30T00:45:48.465Z,998.72
2022-08-30T00:46:48.384Z,998.80
2022-08-30T00:47:48.370Z,998.79
2022-08-30T00:48:48.356Z,998.80
2022-08-30T00:49:48.344Z,998.83
2022-08-30T00:50:48.331Z,998.86
2022-08-30T00:51:48.319Z,998.92
2022-08-30T00:52:48.304Z,998.94
2022-08-30T00:53:48.292Z,998.94
2022-08-30T00:54:48.277Z,998.99
2022-08-30T00:55:48.265Z,998.94
2022-08-30T00:56:48.250Z,998.91
2022-08-30T00:57:48.238Z,998.97
2022-08-30T00:58:48.229Z,998.92
2022-08-30T00:59:48.212Z,998.91
2022-08-30T01:00:48.196Z,998.97
2022-08-30T01:01:48.252Z,998.91
2022-08-30T01:02:48.235Z,998.97
2022-08-30T01:03:48.160Z,998.91
2022-08-30T01:04:48.145Z,998.93
2022-08-30T01:05:48.133Z,998.94
2022-08-30T01:06:48.119Z,998.91
2022-08-30T01:07:48.106Z,998.90
2022-08-30T01:08:48.092Z,998.87
2022-08-30T01:09:48.081Z,998.80
2022-08-30T01:10:48.066Z,998.82
2022-08-30T01:11:48.054Z,998.91
2022-08-30T01:12:48.040Z,998.86
2022-08-30T01:13:48.029Z,998.86
2022-08-30T01:14:48.013Z,998.85
2022-08-30T01:15:48.045Z,998.89
2022-08-30T01:16:47.987Z,998.85
2022-08-30T01:17:47.975Z,998.85
2022-08-30T01:18:47.960Z,998.88
2022-08-30T01:19:47.949Z,998.89
2022-08-30T01:20:47.935Z,998.91
2022-08-30T01:21:47.922Z,998.87
2022-08-30T01:22:47.908Z,998.90
2022-08-30T01:23:47.896Z,998.88
2022-08-30T01:24:47.885Z,998.95
2022-08-30T01:25:47.869Z,998.93
2022-08-30T01:26:47.855Z,998.93
2022-08-30T01:27:47.843Z,998.98
2022-08-30T01:28:47.830Z,998.95
2022-08-30T01:29:47.817Z,998.92
2022-08-30T01:30:47.866Z,999.04
2022-08-30T01:31:47.790Z,999.05
2022-08-30T01:32:47.775Z,999.09
2022-08-30T01:33:47.764Z,999.11
2022-08-30T01:34:47.750Z,999.10
2022-08-30T01:35:47.739Z,999.09
2022-08-30T01:36:47.723Z,999.11
2022-08-30T01:37:47.712Z,999.14
2022-08-30T01:38:47.698Z,999.08
2022-08-30T01:39:47.686Z,999.05
2022-08-30T01:40:47.671Z,999.08
2022-08-30T01:41:47.660Z,999.03
2022-08-30T01:42:47.645Z,999.03
2022-08-30T01:43:47.633Z,999.03
2022-08-30T01:44:47.618Z,999.03
2022-08-30T01:45:47.646Z,999.00
2022-08-30T01:46:47.602Z,998.97
2022-08-30T01:47:47.581Z,999.04
2022-08-30T01:48:54.135Z,999.02
2022-08-30T01:49:47.555Z,999.02
2022-08-30T01:50:47.540Z,999.07
2022-08-30T01:51:47.526Z,999.05
2022-08-30T01:52:47.514Z,999.04
2022-08-30T01:53:47.501Z,999.02
2022-08-30T01:54:47.487Z,999.02
2022-08-30T01:55:47.473Z,998.93
2022-08-30T01:56:47.471Z,998.95
2022-08-30T01:57:47.448Z,998.97
2022-08-30T01:58:47.435Z,998.96
2022-08-30T01:59:47.433Z,998.99
2022-08-30T02:00:47.410Z,998.95
2022-08-30T02:01:47.482Z,998.97
2022-08-30T02:02:47.384Z,999.02
2022-08-30T02:03:47.441Z,998.97
2022-08-30T02:04:47.355Z,999.02
2022-08-30T02:05:47.341Z,998.98
2022-08-30T02:06:47.330Z,998.99
2022-08-30T02:07:47.315Z,999.02
2022-08-30T02:08:47.303Z,998.98
2022-08-30T02:09:47.291Z,999.00
2022-08-30T02:10:47.277Z,998.96
2022-08-30T02:11:47.263Z,998.95
2022-08-30T02:12:47.251Z,998.95
2022-08-30T02:13:47.237Z,998.94
2022-08-30T02:14:47.225Z,998.94
2022-08-30T02:15:47.210Z,998.95
2022-08-30T02:16:47.229Z,998.94
2022-08-30T02:17:47.183Z,998.90
2022-08-30T02:18:47.185Z,998.97
2022-08-30T02:19:47.159Z,999.00
2022-08-30T02:20:47.145Z,998.93
2022-08-30T02:21:47.132Z,998.95
2022-08-30T02:22:49.281Z,998.96
2022-08-30T02:23:47.104Z,998.99
2022-08-30T02:24:47.092Z,998.96
2022-08-30T02:25:47.077Z,998.94
2022-08-30T02:26:47.066Z,998.93
2022-08-30T02:27:47.051Z,998.92
2022-08-30T02:28:50.035Z,999.02
2022-08-30T02:29:47.025Z,999.00
2022-08-30T02:30:47.068Z,999.05
2022-08-30T02:31:46.998Z,999.06
2022-08-30T02:32:46.986Z,999.05
2022-08-30T02:33:46.972Z,999.07
2022-08-30T02:34:46.960Z,999.05
2022-08-30T02:35:46.947Z,999.03
2022-08-30T02:36:46.933Z,999.00
2022-08-30T02:37:46.920Z,999.03
2022-08-30T02:38:46.908Z,999.04
2022-08-30T02:39:46.893Z,999.02
2022-08-30T02:40:46.939Z,998.99
2022-08-30T02:41:46.866Z,998.94
2022-08-30T02:42:46.854Z,998.94
2022-08-30T02:43:46.841Z,998.94
2022-08-30T02:44:46.832Z,998.89
2022-08-30T02:45:46.875Z,998.88
2022-08-30T02:46:46.801Z,998.88
2022-08-30T02:47:47.259Z,998.89
2022-08-30T02:48:46.785Z,998.87
2022-08-30T02:49:46.761Z,998.81
2022-08-30T02:50:46.749Z,998.80
2022-08-30T02:51:46.735Z,998.71
2022-08-30T02:52:48.139Z,998.75
2022-08-30T02:53:46.708Z,998.77
2022-08-30T02:54:46.696Z,998.82
2022-08-30T02:55:46.681Z,998.82
2022-08-30T02:56:46.669Z,998.84
2022-08-30T02:57:46.654Z,998.85
2022-08-30T02:58:46.642Z,998.74
2022-08-30T02:59:46.628Z,998.79
2022-08-30T03:00:46.670Z,998.81
2022-08-30T03:01:46.672Z,998.81
2022-08-30T03:02:46.590Z,998.78
2022-08-30T03:03:46.602Z,998.77
2022-08-30T03:04:46.564Z,998.81
2022-08-30T03:05:46.549Z,998.78
2022-08-30T03:06:46.545Z,998.81
2022-08-30T03:07:46.526Z,998.79
2022-08-30T03:08:46.515Z,998.83
2022-08-30T03:09:46.502Z,998.81
2022-08-30T03:10:46.484Z,998.82
2022-08-30T03:11:46.471Z,998.77
2022-08-30T03:12:46.459Z,998.73
2022-08-30T03:13:46.446Z,998.72
2022-08-30T03:14:46.437Z,998.69
2022-08-30T03:15:46.418Z,998.68
2022-08-30T03:16:46.482Z,998.66
2022-08-30T03:17:46.391Z,998.67
2022-08-30T03:18:46.379Z,998.64
2022-08-30T03:19:46.368Z,998.67
2022-08-30T03:20:54.219Z,998.65
2022-08-30T03:21:46.339Z,998.65
2022-08-30T03:22:46.326Z,998.62
2022-08-30T03:23:46.314Z,998.66
2022-08-30T03:24:46.300Z,998.66
2022-08-30T03:25:46.286Z,998.66
2022-08-30T03:26:46.753Z,998.65
2022-08-30T03:27:46.259Z,998.62
2022-08-30T03:28:46.247Z,998.67
2022-08-30T03:29:46.233Z,998.66
2022-08-30T03:30:46.221Z,998.70
2022-08-30T03:31:52.923Z,998.68
2022-08-30T03:32:46.201Z,998.65
2022-08-30T03:33:46.180Z,998.60
2022-08-30T03:34:46.167Z,998.63
2022-08-30T03:35:46.153Z,998.66
2022-08-30T03:36:46.142Z,998.67
2022-08-30T03:37:46.130Z,998.65
2022-08-30T03:38:46.116Z,998.76
2022-08-30T03:39:46.100Z,998.74
2022-08-30T03:40:46.185Z,998.78
2022-08-30T03:41:46.076Z,998.79
2022-08-30T03:42:46.063Z,998.77
2022-08-30T03:43:46.049Z,998.78
2022-08-30T03:44:46.037Z,998.77
2022-08-30T03:45:46.136Z,998.81
2022-08-30T03:46:46.012Z,998.80
2022-08-30T03:47:45.994Z,998.81
2022-08-30T03:48:45.984Z,998.72
2022-08-30T03:49:45.969Z,998.72
2022-08-30T03:50:45.958Z,998.71
2022-08-30T03:51:45.943Z,998.70
2022-08-30T03:52:45.934Z,998.71
2022-08-30T03:53:45.918Z,998.69
2022-08-30T03:54:45.904Z,998.73
2022-08-30T03:55:45.890Z,998.73
2022-08-30T03:56:45.878Z,998.72
2022-08-30T03:57:45.863Z,998.72
2022-08-30T03:58:45.852Z,998.78
2022-08-30T03:59:45.838Z,998.77
2022-08-30T04:00:45.906Z,998.79
2022-08-30T04:01:46.040Z,998.80
2022-08-30T04:02:45.799Z,998.73
2022-08-30T04:03:45.785Z,998.79
2022-08-30T04:04:45.773Z,998.75
2022-08-30T04:05:45.761Z,998.76
2022-08-30T04:06:45.747Z,998.79
2022-08-30T04:07:45.732Z,998.86
2022-08-30T04:08:45.721Z,998.90
2022-08-30T04:09:45.706Z,998.85
2022-08-30T04:10:45.694Z,998.94
2022-08-30T04:11:45.681Z,998.91
2022-08-30T04:12:49.525Z,998.97
2022-08-30T04:13:45.654Z,998.91
2022-08-30T04:14:45.644Z,998.86
2022-08-30T04:15:45.628Z,998.82
2022-08-30T04:16:45.695Z,998.88
2022-08-30T04:17:45.601Z,998.85
2022-08-30T04:18:45.590Z,998.81
2022-08-30T04:19:45.576Z,998.85
2022-08-30T04:20:45.564Z,998.85
2022-08-30T04:21:45.549Z,998.82
2022-08-30T04:22:45.578Z,998.89
2022-08-30T04:24:45.513Z,998.84
2022-08-30T04:25:45.496Z,998.81
2022-08-30T04:26:45.485Z,998.82
2022-08-30T04:27:45.494Z,998.81
2022-08-30T04:28:45.467Z,998.84
2022-08-30T04:29:45.458Z,998.78
2022-08-30T04:30:45.436Z,998.80
2022-08-30T04:31:45.626Z,998.85
2022-08-30T04:32:45.407Z,998.87
2022-08-30T04:33:45.392Z,998.82
2022-08-30T04:34:45.384Z,998.81
2022-08-30T04:35:45.367Z,998.80
2022-08-30T04:36:48.133Z,998.80
2022-08-30T04:37:45.339Z,998.76
2022-08-30T04:38:45.328Z,998.80
2022-08-30T04:39:45.314Z,998.81
2022-08-30T04:40:45.381Z,998.83
2022-08-30T04:41:45.288Z,998.83
2022-08-30T04:42:45.277Z,998.84
2022-08-30T04:43:45.262Z,998.88
2022-08-30T04:44:45.250Z,998.90
2022-08-30T04:45:45.276Z,998.86
2022-08-30T04:46:45.223Z,998.89
2022-08-30T04:47:45.209Z,998.88
2022-08-30T04:48:45.197Z,998.86
2022-08-30T04:49:45.186Z,998.88
2022-08-30T04:50:45.173Z,998.90
2022-08-30T04:51:45.157Z,998.85
2022-08-30T04:52:45.147Z,998.93
2022-08-30T04:53:45.131Z,998.86
2022-08-30T04:54:45.120Z,998.89
2022-08-30T04:55:45.105Z,998.91
2022-08-30T04:56:45.094Z,998.95
2022-08-30T04:57:45.079Z,998.95
2022-08-30T04:58:45.067Z,998.99
2022-08-30T04:59:45.053Z,999.02
2022-08-30T05:00:45.067Z,998.96
2022-08-30T05:01:46.108Z,999.01
2022-08-30T05:02:45.093Z,998.99
2022-08-30T05:03:45.000Z,999.04
2022-08-30T05:04:44.988Z,999.10
2022-08-30T05:05:44.974Z,999.07
2022-08-30T05:06:44.962Z,999.13
2022-08-30T05:07:44.948Z,999.05
2022-08-30T05:08:46.072Z,999.08
2022-08-30T05:09:44.921Z,999.07
2022-08-30T05:10:44.911Z,999.10
2022-08-30T05:11:44.895Z,999.10
2022-08-30T05:12:44.882Z,999.12
2022-08-30T05:13:44.868Z,999.14
2022-08-30T05:14:44.859Z,999.07
2022-08-30T05:15:44.841Z,999.11
2022-08-30T05:16:44.960Z,999.10
2022-08-30T05:17:44.816Z,999.14
2022-08-30T05:18:44.804Z,999.14
2022-08-30T05:19:44.789Z,999.17
2022-08-30T05:20:44.777Z,999.14
2022-08-30T05:21:44.763Z,999.14
2022-08-30T05:22:44.751Z,999.16
2022-08-30T05:23:44.735Z,999.19
2022-08-30T05:24:44.727Z,999.20
2022-08-30T05:25:44.710Z,999.17
2022-08-30T05:26:44.770Z,999.11
2022-08-30T05:27:44.689Z,999.11
2022-08-30T05:28:44.674Z,999.10
2022-08-30T05:29:44.660Z,999.10
2022-08-30T05:30:44.645Z,999.07
2022-08-30T05:31:44.688Z,999.09
2022-08-30T05:32:44.619Z,999.18
2022-08-30T05:33:44.609Z,999.20
2022-08-30T05:34:44.594Z,999.11
2022-08-30T05:35:44.578Z,999.16
2022-08-30T05:36:44.567Z,999.12
2022-08-30T05:37:44.558Z,999.17
2022-08-30T05:38:44.541Z,999.15
2022-08-30T05:39:51.199Z,999.14
2022-08-30T05:40:44.571Z,999.19
2022-08-30T05:41:44.514Z,999.23
2022-08-30T05:42:44.490Z,999.16
2022-08-30T05:43:44.473Z,999.24
2022-08-30T05:44:44.538Z,999.20
2022-08-30T05:45:44.446Z,999.21
2022-08-30T05:46:44.436Z,999.22
2022-08-30T05:47:44.420Z,999.20
2022-08-30T05:48:44.408Z,999.16
2022-08-30T05:49:44.394Z,999.25
2022-08-30T05:50:44.381Z,999.18
2022-08-30T05:51:44.367Z,999.24
2022-08-30T05:52:44.357Z,999.27
2022-08-30T05:53:44.343Z,999.25
2022-08-30T05:54:44.329Z,999.29
2022-08-30T05:55:44.327Z,999.22
2022-08-30T05:56:44.304Z,999.18
2022-08-30T05:57:44.289Z,999.23
2022-08-30T05:58:44.277Z,999.15
2022-08-30T05:59:44.263Z,999.13
2022-08-30T06:00:44.251Z,999.16
2022-08-30T06:01:44.329Z,999.11
2022-08-30T06:02:44.315Z,999.09
2022-08-30T06:03:44.210Z,999.09
2022-08-30T06:04:44.198Z,999.04
2022-08-30T06:05:44.254Z,999.02
2022-08-30T06:06:44.170Z,999.03
2022-08-30T06:07:44.163Z,999.04
2022-08-30T06:08:44.144Z,998.98
2022-08-30T06:09:44.132Z,999.02
2022-08-30T06:10:44.118Z,999.00
2022-08-30T06:11:44.107Z,998.97
2022-08-30T06:12:44.091Z,998.97
2022-08-30T06:13:44.080Z,999.01
2022-08-30T06:14:44.066Z,998.97
2022-08-30T06:15:44.110Z,998.91
2022-08-30T06:16:44.046Z,998.93
2022-08-30T06:17:44.027Z,998.92
2022-08-30T06:18:44.013Z,998.89
2022-08-30T06:19:44.001Z,998.88
2022-08-30T06:20:43.987Z,998.88
2022-08-30T06:21:43.976Z,998.90
2022-08-30T06:22:43.961Z,998.95
2022-08-30T06:23:43.949Z,998.92
2022-08-30T06:24:57.048Z,998.92
2022-08-30T06:25:43.923Z,998.94
2022-08-30T06:26:43.910Z,998.91
2022-08-30T06:27:43.898Z,998.88
2022-08-30T06:28:43.885Z,998.95
2022-08-30T06:29:43.873Z,998.94
2022-08-30T06:30:43.858Z,998.87
2022-08-30T06:31:43.909Z,998.86
2022-08-30T06:32:43.832Z,998.88
2022-08-30T06:33:43.821Z,998.94
2022-08-30T06:34:43.805Z,998.90
2022-08-30T06:35:58.147Z,998.92
2022-08-30T06:36:43.780Z,998.98
2022-08-30T06:37:43.768Z,998.94
2022-08-30T06:38:43.755Z,998.95
2022-08-30T06:39:43.743Z,998.94
2022-08-30T06:40:43.860Z,998.95
2022-08-30T06:41:43.718Z,999.01
2022-08-30T06:42:43.705Z,999.00
2022-08-30T06:43:48.706Z,998.94
2022-08-30T06:44:45.771Z,999.02
2022-08-30T06:45:43.667Z,999.01
2022-08-30T06:46:43.713Z,998.95
2022-08-30T06:47:44.888Z,999.03
2022-08-30T06:48:46.321Z,998.90
2022-08-30T06:49:43.616Z,998.94
2022-08-30T06:50:43.603Z,999.00
2022-08-30T06:51:44.151Z,999.04
2022-08-30T06:52:43.577Z,998.99
2022-08-30T06:53:43.566Z,999.04
2022-08-30T06:54:43.552Z,999.02
2022-08-30T06:55:43.715Z,999.01
2022-08-30T06:56:57.614Z,998.99
2022-08-30T06:57:45.518Z,999.00
2022-08-30T06:58:43.501Z,999.03
2022-08-30T06:59:43.491Z,999.03
2022-08-30T07:00:43.476Z,999.09
2022-08-30T07:01:43.609Z,999.03
2022-08-30T07:02:43.505Z,999.04
2022-08-30T07:03:43.438Z,999.05
2022-08-30T07:04:43.423Z,999.04
2022-08-30T07:05:43.413Z,998.99
2022-08-30T07:06:43.398Z,999.08
2022-08-30T07:07:43.388Z,999.02
2022-08-30T07:08:43.372Z,999.07
2022-08-30T07:09:43.391Z,999.02
2022-08-30T07:10:43.350Z,999.06
2022-08-30T07:11:43.338Z,999.03
2022-08-30T07:12:43.323Z,999.04
2022-08-30T07:13:43.313Z,999.11
2022-08-30T07:14:43.298Z,999.06
2022-08-30T07:15:43.320Z,999.02
2022-08-30T07:16:43.275Z,999.00
2022-08-30T07:17:43.263Z,999.02
2022-08-30T07:18:43.251Z,999.02
2022-08-30T07:19:43.239Z,998.95
2022-08-30T07:20:43.229Z,998.99
2022-08-30T07:21:43.215Z,998.96
2022-08-30T07:22:43.204Z,998.95
2022-08-30T07:23:43.191Z,998.97
2022-08-30T07:24:43.177Z,998.98
2022-08-30T07:25:43.164Z,998.97
2022-08-30T07:26:43.153Z,999.02
2022-08-30T07:27:43.141Z,999.01
2022-08-30T07:28:43.126Z,999.08
2022-08-30T07:29:43.116Z,998.93
2022-08-30T07:30:43.104Z,999.06
2022-08-30T07:31:43.089Z,999.11
2022-08-30T07:32:43.075Z,999.11
2022-08-30T07:33:43.064Z,999.20
2022-08-30T07:34:43.052Z,999.08
2022-08-30T07:35:43.039Z,999.13
2022-08-30T07:36:43.027Z,999.09
2022-08-30T07:37:43.013Z,999.17
2022-08-30T07:38:43.006Z,999.08
2022-08-30T07:39:47.556Z,999.11
2022-08-30T07:40:43.021Z,999.08
2022-08-30T07:41:42.969Z,999.12
2022-08-30T07:42:42.951Z,999.08
2022-08-30T07:43:42.940Z,999.05
2022-08-30T07:44:42.946Z,999.05
2022-08-30T07:45:42.913Z,999.05
2022-08-30T07:46:43.057Z,999.04
2022-08-30T07:47:42.888Z,999.09
2022-08-30T07:48:44.285Z,999.05
2022-08-30T07:49:42.862Z,999.05
2022-08-30T07:50:42.851Z,999.12
2022-08-30T07:51:42.839Z,999.01
2022-08-30T07:52:42.826Z,999.06
2022-08-30T07:53:42.814Z,999.03
2022-08-30T07:54:42.798Z,998.95
2022-08-30T07:55:42.790Z,998.93
2022-08-30T07:56:42.772Z,998.96
2022-08-30T07:57:42.762Z,999.00
2022-08-30T07:58:42.749Z,998.97
2022-08-30T07:59:42.743Z,998.98
2022-08-30T08:00:42.725Z,999.03
2022-08-30T08:01:42.784Z,999.03
2022-08-30T08:02:42.735Z,999.02
2022-08-30T08:03:42.689Z,999.05
2022-08-30T08:04:42.674Z,999.06
2022-08-30T08:05:42.662Z,999.10
2022-08-30T08:06:42.649Z,999.09
2022-08-30T08:07:42.637Z,999.06
2022-08-30T08:08:42.624Z,999.09
2022-08-30T08:09:42.612Z,999.08
2022-08-30T08:10:42.600Z,999.11
2022-08-30T08:11:42.588Z,999.13
2022-08-30T08:12:42.578Z,999.11
2022-08-30T08:13:53.304Z,999.12
2022-08-30T08:14:42.550Z,999.04
2022-08-30T08:15:42.628Z,999.12
2022-08-30T08:16:42.529Z,999.09
2022-08-30T08:17:42.515Z,999.09
2022-08-30T08:18:42.501Z,999.03
2022-08-30T08:19:42.490Z,999.04
2022-08-30T08:20:42.477Z,999.01
2022-08-30T08:21:42.469Z,999.01
2022-08-30T08:22:42.455Z,998.98
2022-08-30T08:23:42.442Z,998.96
2022-08-30T08:25:42.419Z,998.99
2022-08-30T08:26:45.523Z,999.07
2022-08-30T08:27:42.392Z,999.05
2022-08-30T08:28:42.378Z,999.05
2022-08-30T08:29:42.367Z,999.06
2022-08-30T08:30:46.336Z,999.07
2022-08-30T08:31:42.362Z,999.06
2022-08-30T08:32:42.331Z,998.98
2022-08-30T08:33:42.320Z,999.03
2022-08-30T08:34:42.311Z,999.03
2022-08-30T08:35:42.295Z,999.01
2022-08-30T08:36:42.281Z,999.03
2022-08-30T08:37:42.270Z,999.00
2022-08-30T08:38:42.266Z,999.09
2022-08-30T08:39:42.251Z,999.00
2022-08-30T08:40:42.333Z,999.04
2022-08-30T08:41:42.224Z,999.06
2022-08-30T08:42:42.212Z,999.04
2022-08-30T08:43:42.199Z,999.04
2022-08-30T08:44:42.242Z,999.09
2022-08-30T08:45:42.176Z,999.04
2022-08-30T08:46:45.424Z,999.14
2022-08-30T08:47:42.159Z,999.07
2022-08-30T08:48:58.967Z,999.09
2022-08-30T08:49:44.125Z,999.05
2022-08-30T08:50:42.113Z,999.03
2022-08-30T08:51:42.100Z,999.12
2022-08-30T08:52:42.086Z,999.03
2022-08-30T08:53:46.444Z,999.05
2022-08-30T08:54:42.061Z,999.02
2022-08-30T08:55:42.116Z,999.01
2022-08-30T08:56:42.038Z,999.05
2022-08-30T08:57:42.031Z,998.98
2022-08-30T08:58:42.014Z,999.03
2022-08-30T08:59:42.006Z,998.97
2022-08-30T09:00:41.993Z,998.97
2022-08-30T09:01:42.076Z,998.93
2022-08-30T09:02:41.969Z,999.00
2022-08-30T09:03:41.959Z,998.93
2022-08-30T09:04:41.998Z,998.91
2022-08-30T09:05:41.935Z,998.94
2022-08-30T09:06:45.155Z,998.88
2022-08-30T09:07:41.912Z,998.86
2022-08-30T09:08:41.900Z,998.86
2022-08-30T09:09:41.890Z,998.88
2022-08-30T09:10:50.727Z,998.87
2022-08-30T09:11:44.380Z,998.86
2022-08-30T09:12:41.854Z,998.89
2022-08-30T09:13:41.843Z,998.85
2022-08-30T09:14:45.990Z,998.80
2022-08-30T09:15:41.969Z,998.88
2022-08-30T09:16:41.809Z,998.87
2022-08-30T09:17:41.798Z,998.90
2022-08-30T09:18:41.826Z,998.90
2022-08-30T09:19:41.772Z,998.82
2022-08-30T09:20:41.760Z,998.85
2022-08-30T09:21:41.751Z,998.79
2022-08-30T09:22:41.737Z,998.85
2022-08-30T09:23:41.728Z,998.81
2022-08-30T09:24:41.717Z,998.73
2022-08-30T09:25:41.782Z,998.70
2022-08-30T09:26:41.692Z,998.79
2022-08-30T09:27:41.681Z,998.73
2022-08-30T09:28:41.669Z,998.71
2022-08-30T09:29:41.659Z,998.74
2022-08-30T09:30:41.671Z,998.71
2022-08-30T09:31:41.635Z,998.69
2022-08-30T09:32:41.621Z,998.67
2022-08-30T09:33:41.614Z,998.61
2022-08-30T09:34:41.598Z,998.66
2022-08-30T09:35:41.587Z,998.59
2022-08-30T09:36:41.576Z,998.56
2022-08-30T09:37:41.566Z,998.62
2022-08-30T09:38:41.553Z,998.60
2022-08-30T09:39:41.542Z,998.57
2022-08-30T09:40:41.654Z,998.60
2022-08-30T09:41:41.521Z,998.59
2022-08-30T09:42:41.505Z,998.56
2022-08-30T09:43:41.494Z,998.56
2022-08-30T09:44:41.484Z,998.53
2022-08-30T09:45:41.473Z,998.56
2022-08-30T09:46:41.503Z,998.53
2022-08-30T09:47:41.455Z,998.52
2022-08-30T09:48:41.437Z,998.50
2022-08-30T09:49:41.427Z,998.46
2022-08-30T09:50:42.292Z,998.35
2022-08-30T09:51:41.404Z,998.34
2022-08-30T09:52:41.390Z,998.41
2022-08-30T09:53:50.970Z,998.43
2022-08-30T09:54:41.368Z,998.33
2022-08-30T09:55:41.358Z,998.35
2022-08-30T09:56:41.345Z,998.32
2022-08-30T09:57:41.335Z,998.34
2022-08-30T09:58:41.320Z,998.27
2022-08-30T09:59:41.312Z,998.37
2022-08-30T10:00:41.298Z,998.34
2022-08-30T10:01:41.339Z,998.36
2022-08-30T10:02:41.274Z,998.32
2022-08-30T10:03:41.269Z,998.34
2022-08-30T10:04:41.301Z,998.37
2022-08-30T10:05:41.242Z,998.30
2022-08-30T10:06:42.039Z,998.27
2022-08-30T10:07:41.221Z,998.19
2022-08-30T10:08:41.208Z,998.20
2022-08-30T10:09:41.199Z,998.18
2022-08-30T10:10:45.669Z,998.22
2022-08-30T10:11:41.175Z,998.16
2022-08-30T10:12:41.163Z,998.22
2022-08-30T10:13:41.153Z,998.16
2022-08-30T10:14:41.140Z,998.20
2022-08-30T10:15:41.132Z,998.14
2022-08-30T10:16:41.120Z,998.17
2022-08-30T10:17:41.110Z,998.16
2022-08-30T10:18:41.097Z,998.11
2022-08-30T10:19:41.089Z,998.16
2022-08-30T10:20:41.078Z,998.02
2022-08-30T10:21:41.069Z,998.08
2022-08-30T10:22:41.801Z,998.07
2022-08-30T10:23:41.042Z,998.11
2022-08-30T10:24:41.034Z,998.04
2022-08-30T10:25:41.024Z,998.04
2022-08-30T10:26:41.015Z,998.01
2022-08-30T10:27:41.006Z,997.97
2022-08-30T10:28:40.993Z,998.02
2022-08-30T10:29:42.458Z,997.95
2022-08-30T10:30:40.977Z,998.00
2022-08-30T10:31:42.958Z,997.97
2022-08-30T10:32:40.949Z,998.04
2022-08-30T10:33:40.935Z,998.07
2022-08-30T10:34:40.926Z,998.02
2022-08-30T10:35:40.921Z,997.99
2022-08-30T10:36:40.904Z,997.98
2022-08-30T10:37:40.889Z,998.07
2022-08-30T10:38:40.885Z,997.92
2022-08-30T10:39:40.865Z,997.97
2022-08-30T10:40:40.882Z,997.95
2022-08-30T10:41:40.846Z,997.93
2022-08-30T10:42:40.835Z,997.95
2022-08-30T10:43:40.819Z,997.94
2022-08-30T10:44:41.337Z,997.98
2022-08-30T10:45:40.799Z,998.03
2022-08-30T10:46:40.789Z,997.89
2022-08-30T10:47:40.774Z,997.92
2022-08-30T10:48:40.767Z,997.94
2022-08-30T10:49:40.882Z,997.89
2022-08-30T10:50:41.252Z,997.90
2022-08-30T10:51:40.732Z,997.89
2022-08-30T10:52:40.720Z,997.93
2022-08-30T10:53:40.710Z,997.87
2022-08-30T10:54:40.703Z,997.88
2022-08-30T10:55:40.690Z,997.90
2022-08-30T10:56:40.683Z,997.95
2022-08-30T10:57:43.022Z,997.77
2022-08-30T10:58:40.655Z,997.88
2022-08-30T10:59:40.643Z,997.91
2022-08-30T11:00:40.633Z,997.84
2022-08-30T11:01:46.647Z,997.85
2022-08-30T11:02:40.611Z,997.86
2022-08-30T11:03:40.598Z,997.83
2022-08-30T11:04:40.590Z,997.88
2022-08-30T11:05:40.725Z,997.89
2022-08-30T11:06:40.568Z,997.81
2022-08-30T11:07:40.556Z,997.80
2022-08-30T11:08:40.545Z,997.81
2022-08-30T11:09:40.533Z,997.84
2022-08-30T11:10:40.522Z,997.81
2022-08-30T11:12:40.500Z,997.77
2022-08-30T11:13:40.489Z,997.79
2022-08-30T11:14:40.479Z,997.81
2022-08-30T11:15:40.466Z,997.74
2022-08-30T11:16:40.457Z,997.67
2022-08-30T11:17:40.444Z,997.77
2022-08-30T11:18:40.439Z,997.69
2022-08-30T11:19:40.846Z,997.69
2022-08-30T11:20:40.417Z,997.77
2022-08-30T11:21:40.404Z,997.71
2022-08-30T11:22:40.393Z,997.67
2022-08-30T11:23:40.382Z,997.67
2022-08-30T11:24:40.373Z,997.69
2022-08-30T11:25:40.359Z,997.72
2022-08-30T11:26:40.350Z,997.70
2022-08-30T11:27:40.338Z,997.70
2022-08-30T11:28:40.328Z,997.62
2022-08-30T11:29:40.315Z,997.65
2022-08-30T11:30:40.306Z,997.64
2022-08-30T11:31:40.651Z,997.66
2022-08-30T11:32:40.282Z,997.63
2022-08-30T11:33:40.266Z,997.67
2022-08-30T11:34:40.257Z,997.62
2022-08-30T11:35:47.330Z,997.63
2022-08-30T11:36:46.006Z,997.63
2022-08-30T11:37:40.220Z,997.63
2022-08-30T11:38:40.216Z,997.66
2022-08-30T11:39:40.197Z,997.56
2022-08-30T11:40:40.186Z,997.51
2022-08-30T11:41:42.605Z,997.53
2022-08-30T11:43:40.399Z,997.57
2022-08-30T11:44:40.142Z,997.49
2022-08-30T11:45:40.190Z,997.54
2022-08-30T11:46:40.140Z,997.49
2022-08-30T11:47:40.111Z,997.55
2022-08-30T11:48:40.097Z,997.53
2022-08-30T11:49:42.082Z,997.51
2022-08-30T11:50:40.073Z,997.50
2022-08-30T11:51:40.060Z,997.51
2022-08-30T11:52:40.049Z,997.53
2022-08-30T11:53:40.036Z,997.53
2022-08-30T11:54:40.023Z,997.49
2022-08-30T11:55:40.010Z,997.52
2022-08-30T11:56:40.002Z,997.52
2022-08-30T11:57:39.989Z,997.50
2022-08-30T11:58:39.978Z,997.39
2022-08-30T11:59:39.963Z,997.43
2022-08-30T12:00:40.846Z,997.33
2022-08-30T12:01:49.794Z,997.34
2022-08-30T12:02:42.057Z,997.40
2022-08-30T12:03:40.084Z,997.38
2022-08-30T12:04:39.907Z,997.35
2022-08-30T12:05:39.894Z,997.35
2022-08-30T12:06:39.883Z,997.38
2022-08-30T12:07:39.926Z,997.38
2022-08-30T12:08:39.859Z,997.38
2022-08-30T12:09:39.847Z,997.33
2022-08-30T12:10:39.836Z,997.26
2022-08-30T12:11:39.825Z,997.28
2022-08-30T12:12:39.813Z,997.26
2022-08-30T12:13:39.799Z,997.27
2022-08-30T12:14:41.190Z,997.31
2022-08-30T12:15:39.776Z,997.30
2022-08-30T12:16:39.824Z,997.26
2022-08-30T12:17:39.753Z,997.24
2022-08-30T12:18:40.709Z,997.23
2022-08-30T12:19:41.352Z,997.25
2022-08-30T12:20:39.719Z,997.18
2022-08-30T12:21:44.020Z,997.19
2022-08-30T12:22:39.698Z,997.19
2022-08-30T12:23:44.672Z,997.18
2022-08-30T12:24:39.675Z,997.24
2022-08-30T12:26:39.653Z,997.31
2022-08-30T12:27:39.640Z,997.28
2022-08-30T12:28:42.137Z,997.29
2022-08-30T12:29:39.618Z,997.27
2022-08-30T12:30:39.619Z,997.24
2022-08-30T12:31:39.666Z,997.23
2022-08-30T12:32:39.587Z,997.22
2022-08-30T12:33:41.356Z,997.18
2022-08-30T12:34:39.561Z,997.19